WOODBINE NJ US current weather conditions

sailwx.info

Air temperature 22.8° C
Dewpoint 22.8° C

Last reported at 2020-Aug-11 08:11 UTC.
Time now 2020-Aug-11 10:12 UTC

Location: N 39°14' W 074°48'.
View on Google Maps.

See reports from other nearby stations

  
Tides and Currents Weather Stations Pressure Air Temp Water Temp Dewpoint Dewpoint Depression Visibility Wind Speed Wind Dir Waves Ship Positions
date/time (UTC)wind fromknots sea level pressurealtimeterstation pressurevisibilityair tempwater tempwave heightnotes
2020-Aug-11 08:11 22.8
2020-Aug-11 07:11 174 2 gusting 4 22.8
2020-Aug-11 06:11 176 1 gusting 3 22.8
2020-Aug-11 05:11 22.2
2020-Aug-11 04:11 22.8
2020-Aug-11 03:11 207 0 gusting 4 23.3
2020-Aug-11 02:11 192 2 gusting 4 23.9
2020-Aug-11 01:11 186 2 gusting 5 24.4
2020-Aug-11 00:11 197 3 gusting 6 25.6
2020-Aug-10 23:11 188 3 gusting 10 27.8
2020-Aug-10 22:11 202 6 gusting 11 29.4
2020-Aug-10 21:11 183 4 gusting 9 30.6
2020-Aug-10 20:11 171 5 gusting 12 31.1
2020-Aug-10 19:11 178 5 gusting 10 32.2
2020-Aug-10 18:11 235 5 gusting 9 32.8
2020-Aug-10 17:11 211 5 gusting 10 32.2
2020-Aug-10 16:11 247 4 gusting 6 31.7
2020-Aug-10 15:11 227 3 gusting 6 31.1
2020-Aug-10 14:11 228 3 gusting 6 30.0
2020-Aug-10 13:11 244 3 gusting 8 28.3
2020-Aug-10 12:11 242 2 gusting 4 26.1
2020-Aug-10 11:11 227 0 gusting 2 22.8
2020-Aug-10 10:11 21.7
2020-Aug-10 09:11 21.7
2020-Aug-10 08:11 21.7
2020-Aug-10 07:11 21.7
2020-Aug-10 06:11 183 0 gusting 2 21.7
2020-Aug-10 05:11 214 0 gusting 2 22.2
2020-Aug-10 04:11 208 0 gusting 3 22.2
2020-Aug-10 03:11 204 1 gusting 4 22.8
2020-Aug-10 02:11 186 2 gusting 5 23.3
2020-Aug-10 01:11 180 2 gusting 6 23.3
2020-Aug-10 00:11 181 2 gusting 6 24.4
2020-Aug-09 23:11 180 2 gusting 8 26.1
2020-Aug-09 22:11 180 4 gusting 8 28.3
2020-Aug-09 21:11 181 5 gusting 9 28.9
2020-Aug-09 20:11 136 5 gusting 9 29.4
2020-Aug-09 19:11 213 4 gusting 9 31.7
2020-Aug-09 18:11 231 5 gusting 11 30.6
2020-Aug-09 17:11 196 5 gusting 14 28.9
2020-Aug-09 16:11 212 2 gusting 5 30.0
2020-Aug-09 15:11 194 2 gusting 5 30.0
2020-Aug-09 14:11 207 1 gusting 5 30.0
2020-Aug-09 13:11 241 2 gusting 4 26.7
2020-Aug-09 12:11 23.3
2020-Aug-09 11:11 20.0
2020-Aug-09 10:11 18.9